Time;durP1;ratioP1;P1;durP2;ratioP2;P2;SDS_P1;SDS_P2;PMS_P1;PMS_P2;Temp;Humidity;BMP_temperature;BMP_pressure;BME280_temperature;BME280_humidity;BME280_pressure;Samples;Min_cycle;Max_cycle;Signal;HPM_P1;HPM_P2
2021/11/04 00:01:45;;;;;;;5.65;3.60;;;24.80;56.50;;;;;;4166085;28;19961;-75
2021/11/04 00:03:47;;;;;;;6.43;4.40;;;24.80;56.60;;;;;;4145746;28;20162;-66
2021/11/04 00:05:50;;;;;;;6.57;4.50;;;24.80;56.60;;;;;;4158948;28;20064;-68
2021/11/04 00:07:56;;;;;;;6.20;4.00;;;24.80;56.60;;;;;;4154754;28;20163;-71
2021/11/04 00:09:58;;;;;;;6.72;4.20;;;24.80;56.60;;;;;;4141617;28;20074;-68
2021/11/04 00:12:00;;;;;;;5.90;4.35;;;24.80;56.60;;;;;;4165423;28;20056;-65
2021/11/04 00:14:02;;;;;;;7.85;4.53;;;24.80;56.70;;;;;;4162756;28;20041;-66
2021/11/04 00:16:08;;;;;;;7.15;4.40;;;24.80;56.70;;;;;;4156747;28;20045;-66
2021/11/04 00:18:10;;;;;;;5.22;4.03;;;24.80;56.70;;;;;;4161744;28;20049;-66
2021/11/04 00:20:15;;;;;;;6.75;4.60;;;24.80;56.70;;;;;;4157479;28;20048;-64
2021/11/04 00:22:17;;;;;;;5.78;4.13;;;24.90;56.80;;;;;;4157297;28;20041;-68
2021/11/04 00:24:20;;;;;;;6.13;3.80;;;24.90;56.80;;;;;;4160403;28;20130;-68
2021/11/04 00:26:22;;;;;;;6.45;4.15;;;24.90;56.80;;;;;;4171296;28;20581;-65
2021/11/04 00:28:24;;;;;;;5.82;4.00;;;24.90;56.80;;;;;;4157832;28;20140;-65
2021/11/04 00:30:27;;;;;;;5.57;4.00;;;24.90;56.80;;;;;;4151737;28;20049;-65
2021/11/04 00:32:29;;;;;;;9.05;4.30;;;24.90;56.90;;;;;;4160728;28;20318;-65
2021/11/04 00:34:32;;;;;;;5.93;4.32;;;24.90;56.90;;;;;;4156221;28;20060;-63
2021/11/04 00:36:35;;;;;;;4.82;3.63;;;24.90;57.00;;;;;;4153697;28;20059;-65
2021/11/04 00:38:37;;;;;;;4.88;3.42;;;24.90;56.90;;;;;;4153449;28;20049;-61
2021/11/04 00:40:39;;;;;;;5.85;3.78;;;24.90;56.90;;;;;;4162357;28;20373;-63
2021/11/04 00:42:42;;;;;;;5.88;3.25;;;24.90;57.00;;;;;;4156753;28;20096;-63
2021/11/04 00:44:44;;;;;;;4.55;3.42;;;24.90;56.50;;;;;;4169507;28;20129;-63
2021/11/04 00:46:46;;;;;;;5.55;3.63;;;24.90;57.10;;;;;;4156627;28;20059;-63
2021/11/04 00:48:48;;;;;;;6.47;3.10;;;24.90;57.10;;;;;;4152309;28;20605;-66
2021/11/04 00:50:50;;;;;;;4.60;2.92;;;24.90;57.80;;;;;;4156198;28;20052;-67
2021/11/04 00:52:53;;;;;;;4.68;2.75;;;24.90;57.20;;;;;;4157541;28;20061;-66
2021/11/04 00:54:56;;;;;;;3.88;2.55;;;25.00;57.20;;;;;;4161282;28;20041;-74
2021/11/04 00:56:58;;;;;;;4.00;2.72;;;24.90;57.20;;;;;;4158003;28;20045;-66
2021/11/04 00:59:00;;;;;;;3.97;2.65;;;25.00;57.30;;;;;;4156985;28;20085;-65
2021/11/04 01:02:13;;;;;;;4.22;2.90;;;25.00;56.70;;;;;;4176931;27;20434;-64
2021/11/04 01:04:15;;;;;;;6.70;3.17;;;25.00;58.20;;;;;;4205063;28;20498;-65
2021/11/04 01:06:20;;;;;;;4.43;2.93;;;25.00;57.40;;;;;;4180798;28;20052;-64
2021/11/04 01:08:22;;;;;;;3.58;2.42;;;25.10;57.00;;;;;;4172767;28;20318;-65
2021/11/04 01:10:24;;;;;;;4.97;2.90;;;25.00;56.90;;;;;;4177387;28;20045;-65
2021/11/04 01:12:26;;;;;;;4.85;2.35;;;25.00;56.80;;;;;;4176234;28;20147;-65
2021/11/04 01:14:28;;;;;;;4.13;2.35;;;25.00;56.80;;;;;;4175515;28;20052;-64
2021/11/04 01:16:31;;;;;;;5.18;2.45;;;25.00;56.80;;;;;;4173013;28;20139;-63
2021/11/04 01:18:33;;;;;;;4.82;2.72;;;25.00;56.80;;;;;;4170079;28;20052;-63
2021/11/04 01:20:35;;;;;;;3.47;2.03;;;25.00;56.80;;;;;;4173931;28;20056;-64
2021/11/04 01:22:37;;;;;;;4.17;2.30;;;25.00;56.80;;;;;;4174614;28;20055;-64
2021/11/04 01:24:40;;;;;;;4.15;2.58;;;24.90;56.70;;;;;;4171850;28;20102;-65
2021/11/04 01:26:42;;;;;;;3.22;2.13;;;24.90;56.60;;;;;;4175327;28;20041;-64
2021/11/04 01:28:44;;;;;;;3.65;1.92;;;24.90;56.70;;;;;;4170885;28;20222;-64
2021/11/04 01:30:46;;;;;;;3.70;2.10;;;24.90;56.60;;;;;;4168177;28;20099;-64
2021/11/04 01:32:49;;;;;;;4.10;2.35;;;24.90;56.60;;;;;;4172567;28;20135;-65
2021/11/04 01:34:52;;;;;;;4.53;2.45;;;24.90;56.40;;;;;;4171184;28;20052;-65
2021/11/04 01:36:54;;;;;;;4.07;2.40;;;24.90;56.60;;;;;;4174847;28;20148;-59
2021/11/04 01:38:56;;;;;;;5.53;2.63;;;24.90;57.00;;;;;;4169804;28;20127;-58
2021/11/04 01:40:58;;;;;;;5.53;2.80;;;24.90;56.80;;;;;;4175672;28;20199;-59
2021/11/04 01:43:01;;;;;;;9.27;2.80;;;24.90;57.00;;;;;;4174013;28;20130;-60
2021/11/04 01:45:04;;;;;;;5.38;2.65;;;24.90;57.30;;;;;;4176820;28;20759;-60
2021/11/04 01:47:09;;;;;;;6.18;2.85;;;25.00;57.10;;;;;;4171995;28;20052;-60
2021/11/04 01:49:11;;;;;;;5.43;2.50;;;25.00;57.50;;;;;;4173911;28;20061;-61
2021/11/04 01:51:13;;;;;;;5.90;2.40;;;25.00;57.70;;;;;;4169794;28;20048;-60
2021/11/04 01:53:19;;;;;;;5.50;2.60;;;24.90;57.30;;;;;;4171852;28;20045;-64
2021/11/04 01:55:24;;;;;;;9.57;2.65;;;25.00;57.60;;;;;;4172918;28;20109;-66
2021/11/04 01:57:26;;;;;;;6.13;2.45;;;25.00;57.80;;;;;;4167854;28;20049;-65
2021/11/04 01:59:28;;;;;;;6.03;2.45;;;24.90;57.50;;;;;;4172264;28;20182;-64
2021/11/04 02:01:30;;;;;;;5.37;2.20;;;25.00;57.70;;;;;;4176492;28;20419;-57
2021/11/04 02:03:50;;;;;;;7.53;2.60;;;24.90;57.60;;;;;;4169843;28;21146;-58
2021/11/04 02:05:59;;;;;;;6.00;2.25;;;25.00;58.20;;;;;;4167647;28;20156;-61
2021/11/04 02:08:30;;;;;;;5.85;2.40;;;25.00;57.60;;;;;;4171764;28;20045;-61
2021/11/04 02:10:35;;;;;;;9.35;2.80;;;25.00;58.20;;;;;;4168386;28;20678;-59
2021/11/04 02:12:53;;;;;;;6.18;2.38;;;25.00;58.60;;;;;;4163059;28;20056;-59
2021/11/04 02:14:58;;;;;;;19.02;3.17;;;25.00;58.10;;;;;;4164209;28;20049;-61
2021/11/04 02:17:02;;;;;;;10.63;2.75;;;25.00;58.70;;;;;;4165625;28;20097;-61
2021/11/04 02:19:40;;;;;;;6.57;1.92;;;25.00;58.40;;;;;;4164927;28;20531;-60
2021/11/04 02:21:59;;;;;;;7.35;2.10;;;25.00;58.40;;;;;;4161710;28;20076;-61
2021/11/04 02:24:13;;;;;;;8.95;1.83;;;25.00;58.30;;;;;;4165844;28;20044;-61
2021/11/04 02:26:16;;;;;;;12.82;2.78;;;25.00;58.40;;;;;;4160086;28;20082;-62
2021/11/04 02:28:19;;;;;;;6.38;2.50;;;24.90;58.30;;;;;;4165799;28;20509;-62
2021/11/04 02:30:23;;;;;;;4.10;2.03;;;24.90;58.30;;;;;;4167141;28;20059;-61
2021/11/04 02:32:26;;;;;;;10.40;2.85;;;24.90;58.30;;;;;;4159806;28;20436;-62
2021/11/04 02:34:29;;;;;;;5.78;2.67;;;24.90;58.50;;;;;;4166700;28;20064;-60
2021/11/04 02:36:32;;;;;;;7.15;2.65;;;24.90;58.70;;;;;;4160592;28;20041;-60
2021/11/04 02:38:35;;;;;;;8.80;2.58;;;24.90;58.70;;;;;;4162274;28;20049;-59
2021/11/04 02:40:37;;;;;;;6.00;2.22;;;24.90;58.50;;;;;;4162706;28;20041;-61
2021/11/04 02:42:41;;;;;;;7.07;2.92;;;24.90;59.20;;;;;;4164203;28;20052;-61
2021/11/04 02:44:43;;;;;;;17.13;3.05;;;24.90;59.00;;;;;;4160525;28;20048;-61
2021/11/04 02:46:45;;;;;;;6.07;2.40;;;24.90;59.00;;;;;;4161580;28;20055;-61
2021/11/04 02:48:48;;;;;;;6.88;2.70;;;25.00;59.00;;;;;;4164640;28;20051;-60
2021/11/04 02:50:53;;;;;;;6.90;2.60;;;25.00;58.80;;;;;;4159410;28;20616;-60
2021/11/04 02:52:56;;;;;;;5.05;2.45;;;25.00;58.80;;;;;;4164369;28;20094;-61
2021/11/04 02:54:59;;;;;;;6.97;2.50;;;25.00;58.60;;;;;;4162117;28;20052;-61
2021/11/04 02:57:02;;;;;;;8.00;2.50;;;25.00;58.60;;;;;;4163484;28;20110;-60
2021/11/04 02:59:04;;;;;;;6.18;3.08;;;25.00;58.50;;;;;;4162976;28;20052;-60
2021/11/04 03:01:06;;;;;;;8.00;2.63;;;25.00;58.60;;;;;;4161979;28;20053;-59
2021/11/04 03:03:09;;;;;;;9.68;2.58;;;25.00;58.60;;;;;;4160952;28;20072;-58
2021/11/04 03:05:11;;;;;;;7.13;3.10;;;25.00;58.70;;;;;;4165038;28;20084;-56
2021/11/04 03:07:13;;;;;;;5.82;2.75;;;25.00;58.90;;;;;;4164500;28;20535;-58
2021/11/04 03:09:21;;;;;;;7.78;2.78;;;25.00;58.50;;;;;;4167842;28;20056;-60
2021/11/04 03:11:23;;;;;;;6.07;2.47;;;25.00;58.80;;;;;;4163572;28;20045;-58
2021/11/04 03:13:25;;;;;;;6.93;2.53;;;25.00;58.90;;;;;;4163828;28;20143;-62
2021/11/04 03:15:33;;;;;;;5.28;2.28;;;25.10;59.50;;;;;;4164233;28;20522;-64
2021/11/04 03:17:39;;;;;;;9.40;2.63;;;25.00;59.10;;;;;;4143541;28;20053;-64
2021/11/04 03:19:41;;;;;;;5.75;2.25;;;25.00;59.30;;;;;;4159087;28;20045;-65
2021/11/04 03:21:48;;;;;;;6.25;2.42;;;25.00;58.70;;;;;;4162288;28;20057;-62
2021/11/04 03:23:50;;;;;;;9.10;2.30;;;25.00;59.00;;;;;;4163454;28;20151;-61
2021/11/04 03:25:54;;;;;;;9.40;2.60;;;25.00;59.30;;;;;;4160186;28;20061;-61
2021/11/04 03:27:59;;;;;;;6.95;2.80;;;25.00;59.50;;;;;;4164684;28;20148;-61
2021/11/04 03:30:04;;;;;;;6.43;2.22;;;25.10;59.50;;;;;;4164036;28;20742;-63
2021/11/04 03:32:12;;;;;;;7.03;2.65;;;25.00;59.30;;;;;;4159671;28;20056;-62
2021/11/04 03:34:16;;;;;;;9.27;2.70;;;25.00;59.30;;;;;;4159979;28;20072;-63
2021/11/04 03:36:21;;;;;;;4.55;2.42;;;25.00;59.50;;;;;;4162495;28;20684;-60
2021/11/04 03:38:25;;;;;;;6.85;2.17;;;25.10;59.60;;;;;;4165107;28;20049;-59
2021/11/04 03:40:28;;;;;;;10.98;2.47;;;25.00;59.60;;;;;;4162616;28;20051;-60
2021/11/04 03:42:31;;;;;;;4.95;2.25;;;25.10;59.60;;;;;;4164396;28;20076;-59
2021/11/04 03:44:34;;;;;;;7.43;2.55;;;25.10;59.70;;;;;;4163861;28;20053;-61
2021/11/04 03:46:37;;;;;;;7.18;2.20;;;25.10;59.70;;;;;;4161275;28;20229;-60
2021/11/04 03:48:43;;;;;;;4.22;2.00;;;25.00;59.70;;;;;;4161377;28;20532;-58
2021/11/04 03:50:46;;;;;;;12.52;2.10;;;25.10;59.80;;;;;;4168231;28;20061;-61
2021/11/04 03:52:49;;;;;;;5.20;1.95;;;25.10;59.80;;;;;;4169176;28;20157;-67
2021/11/04 03:54:52;;;;;;;6.85;2.58;;;25.10;59.70;;;;;;4170015;28;20909;-69
2021/11/04 03:56:55;;;;;;;5.72;2.35;;;25.10;60.00;;;;;;4168945;28;20040;-71
2021/11/04 03:58:57;;;;;;;10.95;2.53;;;25.10;60.20;;;;;;4171281;28;20055;-66
2021/11/04 04:02:14;;;;;;;4.80;2.25;;;25.10;59.60;;;;;;4199177;27;20422;-64
2021/11/04 04:04:16;;;;;;;4.77;2.07;;;25.10;60.20;;;;;;4178968;28;20056;-63
2021/11/04 04:06:22;;;;;;;6.67;2.30;;;25.10;60.10;;;;;;4179487;28;20862;-64
2021/11/04 04:08:24;;;;;;;6.45;2.53;;;25.10;60.10;;;;;;4180279;28;20525;-64
2021/11/04 04:10:28;;;;;;;4.80;2.28;;;25.10;60.20;;;;;;4173300;28;20056;-63
2021/11/04 04:12:30;;;;;;;5.25;2.22;;;25.10;60.20;;;;;;4182005;28;20045;-64
2021/11/04 04:14:32;;;;;;;6.32;2.00;;;25.20;60.20;;;;;;4182348;28;20087;-64
2021/11/04 04:16:35;;;;;;;4.85;2.03;;;25.10;60.20;;;;;;4180990;28;20037;-63
2021/11/04 04:18:37;;;;;;;7.28;2.05;;;25.20;60.20;;;;;;4184835;28;20049;-63
2021/11/04 04:20:39;;;;;;;5.03;2.13;;;25.20;60.30;;;;;;4181264;28;20060;-63
2021/11/04 04:22:41;;;;;;;6.90;2.75;;;25.20;60.20;;;;;;4181303;28;20057;-65
2021/11/04 04:24:43;;;;;;;4.10;2.25;;;25.20;60.20;;;;;;4183401;28;20186;-63
2021/11/04 04:26:46;;;;;;;7.25;2.10;;;25.20;60.30;;;;;;4184468;28;20132;-63
2021/11/04 04:28:48;;;;;;;3.97;1.97;;;25.20;60.20;;;;;;4181410;28;20049;-67
2021/11/04 04:30:50;;;;;;;3.95;1.80;;;25.20;60.20;;;;;;4189909;28;20075;-65
2021/11/04 04:32:52;;;;;;;5.35;2.22;;;25.20;60.20;;;;;;4186558;28;20051;-62
2021/11/04 04:34:54;;;;;;;4.18;1.80;;;25.20;60.30;;;;;;4186861;28;20057;-62
2021/11/04 04:36:56;;;;;;;6.38;1.90;;;25.20;60.40;;;;;;4190740;28;20072;-63
2021/11/04 04:38:58;;;;;;;6.00;2.10;;;25.20;60.30;;;;;;4187274;28;20047;-62
2021/11/04 04:41:00;;;;;;;4.60;2.00;;;25.20;60.30;;;;;;4185208;28;20052;-63
2021/11/04 04:43:03;;;;;;;5.97;1.93;;;25.20;60.40;;;;;;4180284;28;20045;-62
2021/11/04 04:45:06;;;;;;;5.63;2.37;;;25.20;60.30;;;;;;4180987;28;20068;-62
2021/11/04 04:47:08;;;;;;;7.70;1.90;;;25.20;60.40;;;;;;4181021;28;20043;-63
2021/11/04 04:49:11;;;;;;;4.00;2.25;;;25.20;60.40;;;;;;4178726;28;20132;-62
2021/11/04 04:51:13;;;;;;;18.38;2.65;;;25.20;60.40;;;;;;4196634;28;20047;-63
2021/11/04 04:53:15;;;;;;;4.85;1.70;;;25.20;60.30;;;;;;4179608;28;20061;-62
2021/11/04 04:55:17;;;;;;;4.10;1.95;;;25.20;60.40;;;;;;4181521;28;20040;-65
2021/11/04 04:57:23;;;;;;;6.68;2.47;;;25.20;60.40;;;;;;4176959;28;20036;-64
2021/11/04 04:59:25;;;;;;;10.20;2.50;;;25.20;60.50;;;;;;4179778;28;20056;-65
2021/11/04 05:01:27;;;;;;;4.88;2.00;;;25.20;60.50;;;;;;4180804;28;20085;-64
2021/11/04 05:03:29;;;;;;;6.43;1.90;;;25.20;60.50;;;;;;4177240;28;20049;-65
2021/11/04 05:05:32;;;;;;;5.68;1.83;;;25.20;60.50;;;;;;4183057;28;20049;-64
2021/11/04 05:07:35;;;;;;;6.22;1.90;;;25.30;60.70;;;;;;4177943;28;20049;-65
2021/11/04 05:09:37;;;;;;;;;;;25.30;60.70;;;;;;4165409;28;20064;-65
2021/11/04 05:11:39;;;;;;;6.80;2.03;;;25.30;60.60;;;;;;4175730;28;20470;-66
2021/11/04 05:13:41;;;;;;;3.88;2.05;;;25.30;60.70;;;;;;4167700;28;20181;-65
2021/11/04 05:15:43;;;;;;;3.97;1.88;;;25.30;60.70;;;;;;4170077;28;20049;-65
2021/11/04 05:17:46;;;;;;;5.38;2.15;;;25.30;60.60;;;;;;4170626;28;20069;-65
2021/11/04 05:19:48;;;;;;;5.35;1.88;;;25.30;60.60;;;;;;4171793;28;20268;-62
2021/11/04 05:21:50;;;;;;;3.83;1.77;;;25.30;60.60;;;;;;4168263;28;20075;-64
2021/11/04 05:23:52;;;;;;;2.93;1.80;;;25.30;60.70;;;;;;4173549;28;20052;-73
2021/11/04 05:25:54;;;;;;;4.03;2.25;;;25.30;60.70;;;;;;4179753;28;20063;-73
2021/11/04 05:27:56;;;;;;;4.70;3.13;;;25.30;60.70;;;;;;4181806;28;20175;-73
2021/11/04 05:29:58;;;;;;;9.75;6.53;;;25.30;60.70;;;;;;4167082;28;20581;-73
2021/11/04 05:32:01;;;;;;;13.40;9.90;;;25.40;60.80;;;;;;4166883;28;20049;-71
2021/11/04 05:34:03;;;;;;;22.77;17.80;;;25.30;60.80;;;;;;4175466;28;20037;-70
2021/11/04 05:36:05;;;;;;;34.80;27.65;;;25.30;60.70;;;;;;4168266;28;20157;-72
2021/11/04 05:38:07;;;;;;;28.88;25.13;;;25.30;60.30;;;;;;4169477;28;20081;-72
2021/11/04 05:40:10;;;;;;;33.50;26.35;;;25.40;60.10;;;;;;4164590;28;20151;-71
2021/11/04 05:42:12;;;;;;;43.90;35.90;;;25.40;60.20;;;;;;4166739;28;20162;-68
2021/11/04 05:44:14;;;;;;;49.35;37.17;;;25.30;60.50;;;;;;4143475;28;20053;-68
2021/11/04 05:46:17;;;;;;;45.50;36.13;;;25.30;60.60;;;;;;4161747;28;20056;-68
2021/11/04 05:48:19;;;;;;;45.30;35.85;;;25.40;60.60;;;;;;4167066;28;20549;-68
2021/11/04 05:50:21;;;;;;;45.80;35.50;;;25.40;60.50;;;;;;4162304;28;20045;-68
2021/11/04 05:52:23;;;;;;;41.90;34.70;;;25.40;60.40;;;;;;4165065;28;20507;-70
2021/11/04 05:54:38;;;;;;;39.33;31.70;;;25.40;60.30;;;;;;4165307;28;20495;-69
2021/11/04 05:56:52;;;;;;;38.45;31.27;;;25.40;60.20;;;;;;4161258;28;20045;-69
2021/11/04 05:58:57;;;;;;;42.78;30.33;;;25.40;60.20;;;;;;4179514;28;20400;-70
2021/11/04 06:00:59;;;;;;;35.50;28.92;;;25.40;60.30;;;;;;4166559;28;20069;-69
2021/11/04 06:03:01;;;;;;;35.25;28.20;;;25.40;60.30;;;;;;4164048;28;20211;-70
2021/11/04 06:05:07;;;;;;;37.33;27.35;;;25.40;60.30;;;;;;4169243;28;20048;-69
2021/11/04 06:07:09;;;;;;;36.15;26.35;;;25.40;60.30;;;;;;4168737;28;20147;-69
2021/11/04 06:09:11;;;;;;;31.77;26.53;;;25.40;60.30;;;;;;4153623;28;20053;-68
2021/11/04 06:11:13;;;;;;;30.10;24.75;;;25.40;60.00;;;;;;4166567;28;20298;-68
2021/11/04 06:13:16;;;;;;;27.70;23.00;;;25.50;59.80;;;;;;4167808;28;20140;-68
2021/11/04 06:15:18;;;;;;;27.27;22.03;;;25.50;59.70;;;;;;4169991;28;20079;-68
2021/11/04 06:17:20;;;;;;;25.30;19.98;;;25.50;59.60;;;;;;4167707;28;20392;-67
2021/11/04 06:19:22;;;;;;;21.23;18.08;;;25.40;59.40;;;;;;4170530;28;20087;-68
2021/11/04 06:21:24;;;;;;;22.73;17.33;;;25.40;59.40;;;;;;4165151;28;20053;-68
2021/11/04 06:23:26;;;;;;;18.98;16.70;;;25.40;59.30;;;;;;4166209;28;20064;-68
2021/11/04 06:25:29;;;;;;;21.13;16.15;;;25.40;59.30;;;;;;4166951;28;20114;-68
2021/11/04 06:27:31;;;;;;;23.02;14.50;;;25.40;59.30;;;;;;4166014;28;20132;-69
2021/11/04 06:29:33;;;;;;;17.20;13.25;;;25.40;59.20;;;;;;4151977;28;20049;-68
2021/11/04 06:31:36;;;;;;;19.70;11.55;;;25.40;59.40;;;;;;4184231;28;20071;-69
2021/11/04 06:33:38;;;;;;;14.50;10.98;;;25.40;59.60;;;;;;4185537;28;20040;-67
2021/11/04 06:35:40;;;;;;;16.02;10.80;;;25.40;59.70;;;;;;4163484;28;20824;-69
2021/11/04 06:37:42;;;;;;;14.20;10.77;;;25.40;59.80;;;;;;4165554;28;20406;-68
2021/11/04 06:39:44;;;;;;;12.03;9.57;;;25.40;60.00;;;;;;4166512;28;20045;-68
2021/11/04 06:41:47;;;;;;;13.00;9.37;;;25.40;60.20;;;;;;4161438;28;20752;-68
2021/11/04 06:43:49;;;;;;;11.65;7.97;;;25.40;60.30;;;;;;4167404;28;20322;-68
2021/11/04 06:45:52;;;;;;;10.33;7.53;;;25.40;60.40;;;;;;4160468;28;20052;-68
2021/11/04 06:47:55;;;;;;;;;;;25.40;60.50;;;;;;4158448;28;20079;-69
2021/11/04 06:49:59;;;;;;;11.48;6.88;;;25.40;60.50;;;;;;4163932;28;19931;-68
2021/11/04 06:52:02;;;;;;;11.45;6.38;;;25.40;60.50;;;;;;4167317;28;20056;-68
2021/11/04 06:54:04;;;;;;;;;;;25.40;60.60;;;;;;4142443;28;20057;-68
2021/11/04 06:56:06;;;;;;;9.63;5.20;;;25.40;60.50;;;;;;4161587;28;19967;-68
2021/11/04 06:58:14;;;;;;;7.77;4.77;;;25.40;60.60;;;;;;4160981;28;20084;-68
2021/11/04 07:02:15;;;;;;;6.00;4.40;;;25.40;60.10;;;;;;4203643;27;21069;-61
2021/11/04 07:04:36;;;;;;;6.07;4.00;;;25.40;60.90;;;;;;4176622;28;20215;-61
2021/11/04 07:06:46;;;;;;;6.45;4.00;;;25.40;60.80;;;;;;4185107;28;20044;-61
2021/11/04 07:08:55;;;;;;;6.93;3.10;;;25.40;60.90;;;;;;4176974;28;20073;-59
2021/11/04 07:11:00;;;;;;;8.63;3.42;;;25.40;60.80;;;;;;4185029;28;20080;-61
2021/11/04 07:13:02;;;;;;;5.20;3.38;;;25.40;61.00;;;;;;4167787;28;20159;-64
2021/11/04 07:15:05;;;;;;;5.27;3.30;;;25.40;61.10;;;;;;4171078;28;20048;-64
2021/11/04 07:17:08;;;;;;;4.45;2.92;;;25.40;61.20;;;;;;4171417;28;20045;-63
2021/11/04 07:19:09;;;;;;;;;;;25.40;61.30;;;;;;4189831;28;20052;-64
2021/11/04 07:21:36;;;;;;;4.18;2.40;;;25.40;61.20;;;;;;4167749;28;19928;-60
2021/11/04 07:23:51;;;;;;;3.25;2.20;;;25.40;61.20;;;;;;4171904;28;20048;-60
2021/11/04 07:25:58;;;;;;;4.18;2.17;;;25.40;61.20;;;;;;4183812;28;20147;-59
2021/11/04 07:28:29;;;;;;;4.93;2.33;;;25.40;61.10;;;;;;4170744;28;20045;-59
2021/11/04 07:30:32;;;;;;;3.67;1.90;;;25.40;61.00;;;;;;4158716;28;20062;-61
2021/11/04 07:32:34;;;;;;;4.05;2.10;;;25.40;61.00;;;;;;4172406;28;20520;-63
2021/11/04 07:34:36;;;;;;;5.20;2.17;;;25.40;60.80;;;;;;4170294;28;20045;-64
2021/11/04 07:36:40;;;;;;;4.97;2.38;;;25.40;60.70;;;;;;4169395;28;20060;-64
2021/11/04 07:38:45;;;;;;;7.90;2.40;;;25.40;60.20;;;;;;4189578;28;20056;-64
2021/11/04 07:40:50;;;;;;;4.22;2.33;;;25.40;60.00;;;;;;4170935;28;20514;-59
2021/11/04 07:42:52;;;;;;;4.30;2.25;;;25.40;60.10;;;;;;4188016;28;20044;-60
2021/11/04 07:44:56;;;;;;;4.90;2.33;;;25.30;60.00;;;;;;4169037;28;20064;-59
2021/11/04 07:46:59;;;;;;;6.35;2.10;;;25.30;60.00;;;;;;4175024;28;20057;-65
2021/11/04 07:49:01;;;;;;;8.85;2.42;;;25.30;60.60;;;;;;4169204;28;20048;-64
2021/11/04 07:51:03;;;;;;;4.75;2.20;;;25.30;60.60;;;;;;4174574;28;20060;-63
2021/11/04 07:53:05;;;;;;;5.30;2.35;;;25.30;60.70;;;;;;4168533;28;20049;-64
2021/11/04 07:55:08;;;;;;;6.57;2.42;;;25.30;60.80;;;;;;4168886;28;20050;-65
2021/11/04 07:57:11;;;;;;;4.28;2.28;;;25.30;60.70;;;;;;4171679;28;20060;-62
2021/11/04 07:59:13;;;;;;;25.60;2.38;;;25.30;60.90;;;;;;4172634;28;20407;-62
2021/11/04 08:01:15;;;;;;;4.65;2.10;;;25.30;61.00;;;;;;4178696;28;20057;-62
2021/11/04 08:03:17;;;;;;;5.25;2.03;;;25.30;61.20;;;;;;4172634;28;20797;-61
2021/11/04 08:05:19;;;;;;;7.53;2.30;;;25.30;61.30;;;;;;4174224;28;20063;-61
2021/11/04 08:07:22;;;;;;;5.75;2.50;;;25.30;61.30;;;;;;4171366;28;20511;-61
2021/11/04 08:09:24;;;;;;;8.60;2.45;;;25.30;61.30;;;;;;4177320;28;20203;-59
2021/11/04 08:11:28;;;;;;;4.60;1.92;;;25.30;61.40;;;;;;4174951;28;20059;-59
2021/11/04 08:13:30;;;;;;;5.35;2.65;;;25.30;61.30;;;;;;4165459;28;20867;-63
2021/11/04 08:15:32;;;;;;;5.10;2.22;;;25.30;61.30;;;;;;4148782;28;20124;-60
2021/11/04 08:17:37;;;;;;;5.78;2.22;;;25.30;61.30;;;;;;4170566;28;20048;-58
2021/11/04 08:19:39;;;;;;;4.32;2.35;;;25.30;61.20;;;;;;4184605;28;20538;-61
2021/11/04 08:21:41;;;;;;;5.88;2.17;;;25.30;61.30;;;;;;4182859;28;20121;-62
2021/11/04 08:23:43;;;;;;;13.82;2.10;;;25.30;61.30;;;;;;4172355;28;20103;-61
2021/11/04 08:25:46;;;;;;;5.20;2.20;;;25.30;61.20;;;;;;4164710;28;20839;-63
2021/11/04 08:27:48;;;;;;;3.75;2.00;;;25.30;61.20;;;;;;4160278;28;20130;-62
2021/11/04 08:29:50;;;;;;;3.38;2.17;;;25.30;61.30;;;;;;4180000;28;20537;-64
2021/11/04 08:31:52;;;;;;;5.20;2.22;;;25.30;61.40;;;;;;4162572;28;20060;-62
2021/11/04 08:33:54;;;;;;;8.07;2.22;;;25.30;61.40;;;;;;4167852;28;20916;-63
2021/11/04 08:35:56;;;;;;;7.03;2.00;;;25.30;61.40;;;;;;4177632;28;20393;-62
2021/11/04 08:37:59;;;;;;;4.15;2.03;;;25.30;61.30;;;;;;4165169;28;20056;-62
2021/11/04 08:40:01;;;;;;;5.10;2.20;;;25.30;61.30;;;;;;4164677;28;20564;-63
2021/11/04 08:42:04;;;;;;;4.83;2.00;;;25.30;61.30;;;;;;4162471;28;20507;-66
2021/11/04 08:44:05;;;;;;;;;;;25.30;61.20;;;;;;4166665;28;20314;-67
2021/11/04 08:46:08;;;;;;;4.38;2.15;;;25.30;60.10;;;;;;4179193;28;19974;-65
2021/11/04 08:48:12;;;;;;;4.68;2.20;;;25.30;60.00;;;;;;4169979;28;20079;-66
2021/11/04 08:50:15;;;;;;;3.55;2.00;;;25.30;60.30;;;;;;4178755;28;20091;-70
2021/11/04 08:52:18;;;;;;;3.47;2.08;;;25.30;60.70;;;;;;4161111;28;20052;-65
2021/11/04 08:54:22;;;;;;;3.85;1.80;;;25.30;60.90;;;;;;4158847;28;20059;-69
2021/11/04 08:56:24;;;;;;;14.07;2.08;;;25.30;61.00;;;;;;4160898;28;20055;-66
2021/11/04 08:58:26;;;;;;;3.50;1.80;;;25.20;61.00;;;;;;4165851;28;20080;-68
2021/11/04 09:00:28;;;;;;;3.45;2.20;;;25.20;61.00;;;;;;4165287;28;20057;-68
2021/11/04 09:02:30;;;;;;;4.97;2.35;;;25.20;61.00;;;;;;4165221;28;20376;-66
2021/11/04 09:04:33;;;;;;;6.38;2.00;;;25.20;61.10;;;;;;4177566;28;20044;-67
2021/11/04 09:06:35;;;;;;;4.13;1.80;;;25.20;61.10;;;;;;4166776;28;20052;-69
2021/11/04 09:08:37;;;;;;;3.65;1.70;;;25.20;61.20;;;;;;4144417;28;20050;-63
2021/11/04 09:10:40;;;;;;;3.42;1.92;;;25.20;61.20;;;;;;4163908;28;20615;-59
2021/11/04 09:12:42;;;;;;;4.15;2.20;;;25.20;61.20;;;;;;4176449;28;20082;-61
2021/11/04 09:14:45;;;;;;;3.47;2.10;;;25.20;61.10;;;;;;4161134;28;20133;-62
2021/11/04 09:16:47;;;;;;;3.97;2.22;;;25.20;60.70;;;;;;4165424;28;20052;-62
2021/11/04 09:18:49;;;;;;;5.10;2.28;;;25.20;61.10;;;;;;4175617;28;20563;-60
2021/11/04 09:20:51;;;;;;;4.53;1.88;;;25.20;61.00;;;;;;4179938;28;20059;-61
2021/11/04 09:22:54;;;;;;;2.63;2.03;;;25.20;61.00;;;;;;4176061;28;20067;-60
2021/11/04 09:24:56;;;;;;;4.88;1.80;;;25.20;61.00;;;;;;4162163;28;20079;-59
2021/11/04 09:27:02;;;;;;;6.10;1.80;;;25.20;61.10;;;;;;4163391;28;20114;-60
2021/11/04 09:29:05;;;;;;;5.53;2.20;;;25.20;61.00;;;;;;4160733;28;20701;-59
2021/11/04 09:31:09;;;;;;;3.38;1.70;;;25.20;61.10;;;;;;4163189;28;20207;-61
2021/11/04 09:33:14;;;;;;;3.42;1.70;;;25.20;61.20;;;;;;4163472;28;20194;-59
2021/11/04 09:35:17;;;;;;;5.82;1.85;;;25.20;61.10;;;;;;4175541;28;20080;-60
2021/11/04 09:37:19;;;;;;;;;;;25.20;61.10;;;;;;4163727;28;20064;-62
2021/11/04 09:39:21;;;;;;;3.70;2.08;;;25.20;61.10;;;;;;4161161;28;19924;-63
2021/11/04 09:41:23;;;;;;;3.80;1.90;;;25.20;61.00;;;;;;4166517;28;20053;-62
2021/11/04 09:43:26;;;;;;;4.60;2.40;;;25.20;61.10;;;;;;4159896;28;20060;-64
2021/11/04 09:45:30;;;;;;;5.47;2.15;;;25.10;60.90;;;;;;4163849;28;20508;-64
2021/11/04 09:47:33;;;;;;;3.47;2.00;;;25.20;61.00;;;;;;4161874;28;20048;-61
2021/11/04 09:49:35;;;;;;;5.72;1.88;;;25.10;61.20;;;;;;4181907;28;20123;-64
2021/11/04 09:51:38;;;;;;;5.00;2.03;;;25.10;61.30;;;;;;4163423;28;20508;-65
2021/11/04 09:53:42;;;;;;;4.18;2.10;;;25.20;61.40;;;;;;4164465;28;20049;-61
2021/11/04 09:55:46;;;;;;;4.93;2.00;;;25.20;61.40;;;;;;4140811;28;20049;-65
2021/11/04 09:57:49;;;;;;;3.33;1.70;;;25.10;61.30;;;;;;4161932;28;20052;-64
2021/11/04 09:59:55;;;;;;;12.02;2.00;;;25.20;61.40;;;;;;4172254;28;20819;-62
2021/11/04 10:02:20;;;;;;;5.45;1.83;;;25.10;60.80;;;;;;4195281;27;20526;-65
2021/11/04 10:04:40;;;;;;;8.38;2.47;;;25.10;61.40;;;;;;4171559;28;20068;-62
2021/11/04 10:06:42;;;;;;;6.00;1.90;;;25.20;61.50;;;;;;4171998;28;20469;-64
2021/11/04 10:08:48;;;;;;;6.90;2.28;;;25.20;61.50;;;;;;4160818;28;20059;-64
2021/11/04 10:11:08;;;;;;;4.38;1.77;;;25.20;61.50;;;;;;4167393;28;20079;-61
2021/11/04 10:13:12;;;;;;;5.28;1.50;;;25.20;61.50;;;;;;4169923;28;20059;-63
2021/11/04 10:15:15;;;;;;;5.30;1.70;;;25.10;61.50;;;;;;4151094;28;20048;-64
2021/11/04 10:17:40;;;;;;;;;;;25.10;61.50;;;;;;4171416;28;20871;-65
2021/11/04 10:19:43;;;;;;;3.90;1.83;;;25.20;61.50;;;;;;4165055;28;19933;-62
2021/11/04 10:21:52;;;;;;;5.07;2.05;;;25.20;61.50;;;;;;4167501;28;20449;-61
2021/11/04 10:23:55;;;;;;;3.92;1.63;;;25.10;61.50;;;;;;4185375;28;20494;-61
2021/11/04 10:26:15;;;;;;;7.72;1.80;;;25.20;61.60;;;;;;4167017;28;20049;-62
2021/11/04 10:28:29;;;;;;;4.28;1.70;;;25.20;61.60;;;;;;4185590;28;20041;-63
2021/11/04 10:30:50;;;;;;;3.35;1.60;;;25.10;61.50;;;;;;4166882;28;20052;-62
2021/11/04 10:32:52;;;;;;;2.97;1.40;;;25.10;61.40;;;;;;4185713;28;20114;-62
2021/11/04 10:35:09;;;;;;;3.40;1.58;;;25.10;61.40;;;;;;4166601;28;20859;-63
2021/11/04 10:37:14;;;;;;;4.00;1.90;;;25.10;61.50;;;;;;4170405;28;20056;-65
2021/11/04 10:39:16;;;;;;;4.05;1.70;;;25.10;61.30;;;;;;4187164;28;20570;-64
2021/11/04 10:41:29;;;;;;;3.22;1.50;;;25.20;61.40;;;;;;4153677;28;21490;-62
2021/11/04 10:43:33;;;;;;;3.88;1.77;;;25.20;61.40;;;;;;4171284;28;20064;-61
2021/11/04 10:45:35;;;;;;;3.63;1.60;;;25.10;61.30;;;;;;4169641;28;20136;-62
2021/11/04 10:47:37;;;;;;;2.88;1.70;;;25.20;61.30;;;;;;4185516;28;20056;-61
2021/11/04 10:49:49;;;;;;;2.60;1.63;;;25.20;61.20;;;;;;4187560;28;20131;-62